sensor_id;sensor_type;location;lat;lon;timestamp;temperature;humidity
13808;DHT22;40769;51.512;5.494;2022-11-02T00:00:18;17.20;99.90
13808;DHT22;40769;51.512;5.494;2022-11-02T00:02:43;17.20;99.90
13808;DHT22;40769;51.512;5.494;2022-11-02T00:05:12;17.20;99.90
13808;DHT22;40769;51.512;5.494;2022-11-02T00:07:39;17.20;99.90
13808;DHT22;40769;51.512;5.494;2022-11-02T00:10:06;17.30;99.90
13808;DHT22;40769;51.512;5.494;2022-11-02T00:12:32;17.30;99.90
13808;DHT22;40769;51.512;5.494;2022-11-02T00:14:57;17.30;99.90
13808;DHT22;40769;51.512;5.494;2022-11-02T00:17:23;17.30;99.90
13808;DHT22;40769;51.512;5.494;2022-11-02T00:19:48;17.40;99.90
13808;DHT22;40769;51.512;5.494;2022-11-02T00:22:14;17.40;99.90
13808;DHT22;40769;51.512;5.494;2022-11-02T00:24:40;17.40;99.90
13808;DHT22;40769;51.512;5.494;2022-11-02T00:27:05;17.40;99.90
13808;DHT22;40769;51.512;5.494;2022-11-02T00:29:33;17.40;99.90
13808;DHT22;40769;51.512;5.494;2022-11-02T00:31:59;17.40;99.90
13808;DHT22;40769;51.512;5.494;2022-11-02T00:34:24;17.40;99.90
13808;DHT22;40769;51.512;5.494;2022-11-02T00:36:50;17.70;99.90
13808;DHT22;40769;51.512;5.494;2022-11-02T00:39:16;17.40;99.90
13808;DHT22;40769;51.512;5.494;2022-11-02T00:41:41;17.30;99.90
13808;DHT22;40769;51.512;5.494;2022-11-02T00:44:07;17.40;99.90
13808;DHT22;40769;51.512;5.494;2022-11-02T00:46:33;17.40;99.90
13808;DHT22;40769;51.512;5.494;2022-11-02T00:48:58;17.40;99.90
13808;DHT22;40769;51.512;5.494;2022-11-02T00:51:24;17.40;99.90
13808;DHT22;40769;51.512;5.494;2022-11-02T00:53:49;17.50;99.90
13808;DHT22;40769;51.512;5.494;2022-11-02T00:56:15;17.60;99.90
13808;DHT22;40769;51.512;5.494;2022-11-02T00:58:40;17.50;99.90
13808;DHT22;40769;51.512;5.494;2022-11-02T01:01:07;17.40;99.90
13808;DHT22;40769;51.512;5.494;2022-11-02T01:03:32;17.60;99.90
13808;DHT22;40769;51.512;5.494;2022-11-02T01:05:58;17.40;99.90
13808;DHT22;40769;51.512;5.494;2022-11-02T01:08:24;17.30;99.90
13808;DHT22;40769;51.512;5.494;2022-11-02T01:10:49;17.30;99.90
13808;DHT22;40769;51.512;5.494;2022-11-02T01:13:15;17.20;99.90
13808;DHT22;40769;51.512;5.494;2022-11-02T01:15:41;17.10;99.90
13808;DHT22;40769;51.512;5.494;2022-11-02T01:18:07;17.10;99.90
13808;DHT22;40769;51.512;5.494;2022-11-02T01:20:33;17.00;99.90
13808;DHT22;40769;51.512;5.494;2022-11-02T01:22:59;17.00;99.90
13808;DHT22;40769;51.512;5.494;2022-11-02T01:25:24;16.90;99.90
13808;DHT22;40769;51.512;5.494;2022-11-02T01:27:50;16.90;99.90
13808;DHT22;40769;51.512;5.494;2022-11-02T01:30:15;16.80;99.90
13808;DHT22;40769;51.512;5.494;2022-11-02T01:32:41;16.90;99.90
13808;DHT22;40769;51.512;5.494;2022-11-02T01:35:07;16.70;99.90
13808;DHT22;40769;51.512;5.494;2022-11-02T01:37:32;16.70;99.90
13808;DHT22;40769;51.512;5.494;2022-11-02T01:39:59;16.60;99.90
13808;DHT22;40769;51.512;5.494;2022-11-02T01:42:26;16.60;99.90
13808;DHT22;40769;51.512;5.494;2022-11-02T01:44:52;16.50;99.90
13808;DHT22;40769;51.512;5.494;2022-11-02T01:47:30;16.50;99.90
13808;DHT22;40769;51.512;5.494;2022-11-02T01:50:10;16.40;99.90
13808;DHT22;40769;51.512;5.494;2022-11-02T01:52:37;16.40;99.90
13808;DHT22;40769;51.512;5.494;2022-11-02T01:55:11;16.30;99.90
13808;DHT22;40769;51.512;5.494;2022-11-02T01:57:38;16.30;99.90
13808;DHT22;40769;51.512;5.494;2022-11-02T02:00:06;16.30;99.90
13808;DHT22;40769;51.512;5.494;2022-11-02T02:02:36;16.20;99.90
13808;DHT22;40769;51.512;5.494;2022-11-02T02:05:06;16.20;99.90
13808;DHT22;40769;51.512;5.494;2022-11-02T02:07:35;16.20;99.90
13808;DHT22;40769;51.512;5.494;2022-11-02T02:10:02;16.20;99.90
13808;DHT22;40769;51.512;5.494;2022-11-02T02:12:29;16.10;99.90
13808;DHT22;40769;51.512;5.494;2022-11-02T02:14:55;16.10;99.90
13808;DHT22;40769;51.512;5.494;2022-11-02T02:30:30;16.10;99.90
13808;DHT22;40769;51.512;5.494;2022-11-02T02:33:17;16.00;99.90
13808;DHT22;40769;51.512;5.494;2022-11-02T02:35:57;15.90;99.90
13808;DHT22;40769;51.512;5.494;2022-11-02T02:38:27;16.00;99.90
13808;DHT22;40769;51.512;5.494;2022-11-02T02:43:33;15.90;99.90
13808;DHT22;40769;51.512;5.494;2022-11-02T02:46:10;15.80;99.90
13808;DHT22;40769;51.512;5.494;2022-11-02T02:48:39;15.80;99.90
13808;DHT22;40769;51.512;5.494;2022-11-02T02:51:13;15.90;99.90
13808;DHT22;40769;51.512;5.494;2022-11-02T02:53:44;15.90;99.90
13808;DHT22;40769;51.512;5.494;2022-11-02T02:56:12;16.00;99.90
13808;DHT22;40769;51.512;5.494;2022-11-02T02:58:59;15.70;99.90
13808;DHT22;40769;51.512;5.494;2022-11-02T03:01:26;15.70;99.90
13808;DHT22;40769;51.512;5.494;2022-11-02T03:03:52;15.60;99.90
13808;DHT22;40769;51.512;5.494;2022-11-02T03:06:29;15.60;99.90
13808;DHT22;40769;51.512;5.494;2022-11-02T03:11:27;15.60;99.90
13808;DHT22;40769;51.512;5.494;2022-11-02T03:14:14;15.60;99.90
13808;DHT22;40769;51.512;5.494;2022-11-02T03:17:15;15.60;99.90
13808;DHT22;40769;51.512;5.494;2022-11-02T03:20:19;15.50;99.90
13808;DHT22;40769;51.512;5.494;2022-11-02T03:23:04;15.50;99.90
13808;DHT22;40769;51.512;5.494;2022-11-02T03:28:45;15.50;99.90
13808;DHT22;40769;51.512;5.494;2022-11-02T03:34:59;15.50;99.90
13808;DHT22;40769;51.512;5.494;2022-11-02T03:37:26;15.50;99.90
13808;DHT22;40769;51.512;5.494;2022-11-02T03:39:57;15.50;99.90
13808;DHT22;40769;51.512;5.494;2022-11-02T03:42:27;15.60;99.90
13808;DHT22;40769;51.512;5.494;2022-11-02T03:45:03;15.70;99.90
13808;DHT22;40769;51.512;5.494;2022-11-02T03:47:32;15.50;99.90
13808;DHT22;40769;51.512;5.494;2022-11-02T03:49:59;15.50;99.90
13808;DHT22;40769;51.512;5.494;2022-11-02T03:52:29;15.50;99.90
13808;DHT22;40769;51.512;5.494;2022-11-02T03:55:06;15.50;99.90
13808;DHT22;40769;51.512;5.494;2022-11-02T03:57:51;15.50;99.90
13808;DHT22;40769;51.512;5.494;2022-11-02T04:00:19;15.50;99.90
13808;DHT22;40769;51.512;5.494;2022-11-02T04:02:51;15.50;99.90
13808;DHT22;40769;51.512;5.494;2022-11-02T04:05:17;15.50;99.90
13808;DHT22;40769;51.512;5.494;2022-11-02T04:07:48;15.40;99.90
13808;DHT22;40769;51.512;5.494;2022-11-02T04:10:33;15.50;99.90
13808;DHT22;40769;51.512;5.494;2022-11-02T04:12:59;15.50;99.90
13808;DHT22;40769;51.512;5.494;2022-11-02T04:15:43;15.50;99.90
13808;DHT22;40769;51.512;5.494;2022-11-02T04:18:09;15.50;99.90
13808;DHT22;40769;51.512;5.494;2022-11-02T04:20:53;15.40;99.90
13808;DHT22;40769;51.512;5.494;2022-11-02T04:23:18;15.40;99.90
13808;DHT22;40769;51.512;5.494;2022-11-02T04:26:03;15.40;99.90
13808;DHT22;40769;51.512;5.494;2022-11-02T04:28:29;15.40;99.90
13808;DHT22;40769;51.512;5.494;2022-11-02T04:30:57;15.30;99.90
13808;DHT22;40769;51.512;5.494;2022-11-02T04:33:26;15.30;99.90
13808;DHT22;40769;51.512;5.494;2022-11-02T04:36:02;15.30;99.90
13808;DHT22;40769;51.512;5.494;2022-11-02T04:38:31;15.30;99.90
13808;DHT22;40769;51.512;5.494;2022-11-02T04:41:07;15.20;99.90
13808;DHT22;40769;51.512;5.494;2022-11-02T04:43:52;15.20;99.90
13808;DHT22;40769;51.512;5.494;2022-11-02T04:46:18;15.10;99.90
13808;DHT22;40769;51.512;5.494;2022-11-02T04:48:44;15.40;99.90
13808;DHT22;40769;51.512;5.494;2022-11-02T04:51:09;15.10;99.90
13808;DHT22;40769;51.512;5.494;2022-11-02T04:53:35;15.20;99.90
13808;DHT22;40769;51.512;5.494;2022-11-02T04:56:01;15.20;99.90
13808;DHT22;40769;51.512;5.494;2022-11-02T04:58:27;15.20;99.90
13808;DHT22;40769;51.512;5.494;2022-11-02T05:00:52;15.40;99.90
13808;DHT22;40769;51.512;5.494;2022-11-02T05:03:18;15.20;99.90
13808;DHT22;40769;51.512;5.494;2022-11-02T05:05:43;15.20;99.90
13808;DHT22;40769;51.512;5.494;2022-11-02T05:08:09;15.40;99.90
13808;DHT22;40769;51.512;5.494;2022-11-02T05:10:34;15.30;99.90
13808;DHT22;40769;51.512;5.494;2022-11-02T05:13:00;15.40;99.90
13808;DHT22;40769;51.512;5.494;2022-11-02T05:15:26;15.20;99.90
13808;DHT22;40769;51.512;5.494;2022-11-02T05:17:51;15.20;99.90
13808;DHT22;40769;51.512;5.494;2022-11-02T05:20:17;15.30;99.90
13808;DHT22;40769;51.512;5.494;2022-11-02T05:22:43;15.30;99.90
13808;DHT22;40769;51.512;5.494;2022-11-02T05:25:09;15.30;99.90
13808;DHT22;40769;51.512;5.494;2022-11-02T05:27:35;15.30;99.90
13808;DHT22;40769;51.512;5.494;2022-11-02T05:30:00;15.40;99.90
13808;DHT22;40769;51.512;5.494;2022-11-02T05:32:26;15.40;99.90
13808;DHT22;40769;51.512;5.494;2022-11-02T05:34:52;15.30;99.90
13808;DHT22;40769;51.512;5.494;2022-11-02T05:37:17;15.40;99.90
13808;DHT22;40769;51.512;5.494;2022-11-02T05:39:43;15.30;99.90
13808;DHT22;40769;51.512;5.494;2022-11-02T05:42:08;15.20;99.90
13808;DHT22;40769;51.512;5.494;2022-11-02T05:44:34;15.20;99.90
13808;DHT22;40769;51.512;5.494;2022-11-02T05:47:00;15.20;99.90
13808;DHT22;40769;51.512;5.494;2022-11-02T05:49:25;15.20;99.90
13808;DHT22;40769;51.512;5.494;2022-11-02T05:51:51;15.20;99.90
13808;DHT22;40769;51.512;5.494;2022-11-02T05:54:17;15.20;99.90
13808;DHT22;40769;51.512;5.494;2022-11-02T05:56:42;15.10;99.90
13808;DHT22;40769;51.512;5.494;2022-11-02T05:59:08;15.10;99.90
13808;DHT22;40769;51.512;5.494;2022-11-02T06:01:34;15.10;99.90
13808;DHT22;40769;51.512;5.494;2022-11-02T06:03:59;15.10;99.90
13808;DHT22;40769;51.512;5.494;2022-11-02T06:06:25;15.00;99.90
13808;DHT22;40769;51.512;5.494;2022-11-02T06:08:51;15.10;99.90
13808;DHT22;40769;51.512;5.494;2022-11-02T06:11:16;14.90;99.90
13808;DHT22;40769;51.512;5.494;2022-11-02T06:13:42;14.90;99.90
13808;DHT22;40769;51.512;5.494;2022-11-02T06:16:09;14.80;99.90
13808;DHT22;40769;51.512;5.494;2022-11-02T06:18:36;14.60;99.90
13808;DHT22;40769;51.512;5.494;2022-11-02T06:21:02;14.70;99.90
13808;DHT22;40769;51.512;5.494;2022-11-02T06:23:28;14.70;99.90
13808;DHT22;40769;51.512;5.494;2022-11-02T06:25:56;14.60;99.90
13808;DHT22;40769;51.512;5.494;2022-11-02T06:28:22;14.60;99.90
13808;DHT22;40769;51.512;5.494;2022-11-02T06:30:48;14.50;99.90
13808;DHT22;40769;51.512;5.494;2022-11-02T06:33:15;14.50;99.90
13808;DHT22;40769;51.512;5.494;2022-11-02T06:35:44;14.50;99.90
13808;DHT22;40769;51.512;5.494;2022-11-02T06:38:10;14.50;99.90
13808;DHT22;40769;51.512;5.494;2022-11-02T06:40:36;14.60;99.90
13808;DHT22;40769;51.512;5.494;2022-11-02T06:43:01;14.40;99.90
13808;DHT22;40769;51.512;5.494;2022-11-02T06:45:27;14.40;99.90
13808;DHT22;40769;51.512;5.494;2022-11-02T06:47:52;14.40;99.90
13808;DHT22;40769;51.512;5.494;2022-11-02T06:50:18;14.40;99.90
13808;DHT22;40769;51.512;5.494;2022-11-02T06:52:45;14.40;99.90
13808;DHT22;40769;51.512;5.494;2022-11-02T06:55:12;14.30;99.90
13808;DHT22;40769;51.512;5.494;2022-11-02T06:57:38;14.30;99.90
13808;DHT22;40769;51.512;5.494;2022-11-02T07:00:05;14.30;99.90
13808;DHT22;40769;51.512;5.494;2022-11-02T07:02:32;14.30;99.90
13808;DHT22;40769;51.512;5.494;2022-11-02T07:04:57;14.30;99.90
13808;DHT22;40769;51.512;5.494;2022-11-02T07:07:23;14.30;99.90
13808;DHT22;40769;51.512;5.494;2022-11-02T07:09:49;14.30;99.90
13808;DHT22;40769;51.512;5.494;2022-11-02T07:12:14;14.40;99.90
13808;DHT22;40769;51.512;5.494;2022-11-02T07:14:40;14.40;99.90
13808;DHT22;40769;51.512;5.494;2022-11-02T07:17:05;14.40;99.90
13808;DHT22;40769;51.512;5.494;2022-11-02T07:19:31;14.40;99.90
13808;DHT22;40769;51.512;5.494;2022-11-02T07:21:57;14.80;99.90
13808;DHT22;40769;51.512;5.494;2022-11-02T07:24:22;14.50;99.90
13808;DHT22;40769;51.512;5.494;2022-11-02T07:26:48;14.60;99.90
13808;DHT22;40769;51.512;5.494;2022-11-02T07:29:15;14.60;99.90
13808;DHT22;40769;51.512;5.494;2022-11-02T07:31:41;14.70;99.90
13808;DHT22;40769;51.512;5.494;2022-11-02T07:34:07;14.80;99.90
13808;DHT22;40769;51.512;5.494;2022-11-02T07:36:32;14.90;99.90
13808;DHT22;40769;51.512;5.494;2022-11-02T07:38:58;15.00;99.90
13808;DHT22;40769;51.512;5.494;2022-11-02T07:41:24;15.10;99.90
13808;DHT22;40769;51.512;5.494;2022-11-02T07:43:49;15.30;99.90
13808;DHT22;40769;51.512;5.494;2022-11-02T07:46:15;15.30;99.90
13808;DHT22;40769;51.512;5.494;2022-11-02T07:48:40;15.30;99.90
13808;DHT22;40769;51.512;5.494;2022-11-02T07:51:06;15.40;99.90
13808;DHT22;40769;51.512;5.494;2022-11-02T07:53:33;15.60;99.90
13808;DHT22;40769;51.512;5.494;2022-11-02T07:56:08;15.60;99.90
13808;DHT22;40769;51.512;5.494;2022-11-02T07:58:33;15.80;99.90
13808;DHT22;40769;51.512;5.494;2022-11-02T08:01:00;15.90;99.90
13808;DHT22;40769;51.512;5.494;2022-11-02T08:03:26;15.90;99.90
13808;DHT22;40769;51.512;5.494;2022-11-02T08:05:53;16.00;99.90
13808;DHT22;40769;51.512;5.494;2022-11-02T08:08:20;16.00;99.90
13808;DHT22;40769;51.512;5.494;2022-11-02T08:10:48;16.10;99.90
13808;DHT22;40769;51.512;5.494;2022-11-02T08:13:17;16.20;99.90
13808;DHT22;40769;51.512;5.494;2022-11-02T08:15:43;16.20;99.90
13808;DHT22;40769;51.512;5.494;2022-11-02T08:18:13;16.30;99.90
13808;DHT22;40769;51.512;5.494;2022-11-02T08:20:39;16.60;99.90
13808;DHT22;40769;51.512;5.494;2022-11-02T08:23:05;16.50;99.90
13808;DHT22;40769;51.512;5.494;2022-11-02T08:25:32;16.60;99.90
13808;DHT22;40769;51.512;5.494;2022-11-02T08:27:59;16.70;99.90
13808;DHT22;40769;51.512;5.494;2022-11-02T08:30:27;16.80;99.90
13808;DHT22;40769;51.512;5.494;2022-11-02T08:32:53;16.90;99.90
13808;DHT22;40769;51.512;5.494;2022-11-02T08:35:19;16.90;99.90
13808;DHT22;40769;51.512;5.494;2022-11-02T08:37:44;17.00;99.90
13808;DHT22;40769;51.512;5.494;2022-11-02T08:40:16;17.10;99.90
13808;DHT22;40769;51.512;5.494;2022-11-02T08:42:42;17.20;99.90
13808;DHT22;40769;51.512;5.494;2022-11-02T08:45:08;17.80;99.90
13808;DHT22;40769;51.512;5.494;2022-11-02T08:47:39;17.30;99.90
13808;DHT22;40769;51.512;5.494;2022-11-02T08:50:05;17.30;99.90
13808;DHT22;40769;51.512;5.494;2022-11-02T08:52:34;17.40;99.90
13808;DHT22;40769;51.512;5.494;2022-11-02T08:55:00;17.40;99.90
13808;DHT22;40769;51.512;5.494;2022-11-02T08:57:26;17.60;99.90
13808;DHT22;40769;51.512;5.494;2022-11-02T08:59:51;17.60;99.90
13808;DHT22;40769;51.512;5.494;2022-11-02T09:02:17;17.70;99.90
13808;DHT22;40769;51.512;5.494;2022-11-02T09:04:42;17.70;99.90
13808;DHT22;40769;51.512;5.494;2022-11-02T09:07:08;17.80;99.90
13808;DHT22;40769;51.512;5.494;2022-11-02T09:09:34;17.80;99.90
13808;DHT22;40769;51.512;5.494;2022-11-02T09:11:59;17.90;99.90
13808;DHT22;40769;51.512;5.494;2022-11-02T09:14:25;17.90;99.90
13808;DHT22;40769;51.512;5.494;2022-11-02T09:16:50;17.90;99.90
13808;DHT22;40769;51.512;5.494;2022-11-02T09:19:16;18.20;99.90
13808;DHT22;40769;51.512;5.494;2022-11-02T09:21:41;18.10;99.90
13808;DHT22;40769;51.512;5.494;2022-11-02T09:24:07;18.20;99.90
13808;DHT22;40769;51.512;5.494;2022-11-02T09:26:33;18.20;99.90
13808;DHT22;40769;51.512;5.494;2022-11-02T09:28:58;18.20;99.90
13808;DHT22;40769;51.512;5.494;2022-11-02T09:31:24;18.30;99.90
13808;DHT22;40769;51.512;5.494;2022-11-02T09:33:49;18.30;99.90
13808;DHT22;40769;51.512;5.494;2022-11-02T09:36:15;18.30;99.90
13808;DHT22;40769;51.512;5.494;2022-11-02T09:38:40;18.30;99.90
13808;DHT22;40769;51.512;5.494;2022-11-02T09:41:13;18.40;99.90
13808;DHT22;40769;51.512;5.494;2022-11-02T09:43:52;18.40;99.90
13808;DHT22;40769;51.512;5.494;2022-11-02T09:46:30;18.40;99.90
13808;DHT22;40769;51.512;5.494;2022-11-02T09:48:59;19.20;99.90
13808;DHT22;40769;51.512;5.494;2022-11-02T09:56:56;18.50;99.90
13808;DHT22;40769;51.512;5.494;2022-11-02T09:59:25;18.50;99.90
13808;DHT22;40769;51.512;5.494;2022-11-02T10:04:48;18.70;99.90
13808;DHT22;40769;51.512;5.494;2022-11-02T10:10:12;18.80;99.90
13808;DHT22;40769;51.512;5.494;2022-11-02T10:13:19;18.90;99.90
13808;DHT22;40769;51.512;5.494;2022-11-02T10:15:53;18.80;99.90
13808;DHT22;40769;51.512;5.494;2022-11-02T10:18:23;18.90;99.90
13808;DHT22;40769;51.512;5.494;2022-11-02T10:23:30;19.00;99.90
13808;DHT22;40769;51.512;5.494;2022-11-02T10:25:59;19.00;99.90
13808;DHT22;40769;51.512;5.494;2022-11-02T10:28:29;18.90;99.90
13808;DHT22;40769;51.512;5.494;2022-11-02T10:30:55;19.00;99.90
13808;DHT22;40769;51.512;5.494;2022-11-02T10:33:25;19.00;99.90
13808;DHT22;40769;51.512;5.494;2022-11-02T10:39:45;19.20;99.90
13808;DHT22;40769;51.512;5.494;2022-11-02T10:45:12;19.20;99.90
13808;DHT22;40769;51.512;5.494;2022-11-02T10:47:40;19.30;99.90
13808;DHT22;40769;51.512;5.494;2022-11-02T10:53:13;19.40;99.90
13808;DHT22;40769;51.512;5.494;2022-11-02T10:58:16;19.10;99.90
13808;DHT22;40769;51.512;5.494;2022-11-02T11:00:42;19.20;99.90
13808;DHT22;40769;51.512;5.494;2022-11-02T11:03:14;19.20;99.90
13808;DHT22;40769;51.512;5.494;2022-11-02T11:08:42;19.20;99.90
13808;DHT22;40769;51.512;5.494;2022-11-02T11:11:40;19.30;99.90
13808;DHT22;40769;51.512;5.494;2022-11-02T11:14:16;19.30;99.90
13808;DHT22;40769;51.512;5.494;2022-11-02T11:16:43;19.30;99.90
13808;DHT22;40769;51.512;5.494;2022-11-02T11:19:33;19.20;99.90
13808;DHT22;40769;51.512;5.494;2022-11-02T11:22:01;19.20;99.90
13808;DHT22;40769;51.512;5.494;2022-11-02T11:24:32;19.20;99.90
13808;DHT22;40769;51.512;5.494;2022-11-02T11:29:38;19.10;99.90
13808;DHT22;40769;51.512;5.494;2022-11-02T11:32:16;19.10;99.90
13808;DHT22;40769;51.512;5.494;2022-11-02T11:34:44;19.10;99.90
13808;DHT22;40769;51.512;5.494;2022-11-02T11:37:13;19.10;99.90
13808;DHT22;40769;51.512;5.494;2022-11-02T11:39:42;19.00;99.90
13808;DHT22;40769;51.512;5.494;2022-11-02T11:42:35;18.90;99.90
13808;DHT22;40769;51.512;5.494;2022-11-02T11:45:21;18.90;99.90
13808;DHT22;40769;51.512;5.494;2022-11-02T11:47:51;18.90;99.90
13808;DHT22;40769;51.512;5.494;2022-11-02T11:50:18;18.90;99.90
13808;DHT22;40769;51.512;5.494;2022-11-02T11:52:44;18.90;99.90
13808;DHT22;40769;51.512;5.494;2022-11-02T11:55:23;18.80;99.90
13808;DHT22;40769;51.512;5.494;2022-11-02T11:58:25;18.80;99.90
13808;DHT22;40769;51.512;5.494;2022-11-02T12:01:03;18.80;99.90
13808;DHT22;40769;51.512;5.494;2022-11-02T12:03:28;18.70;99.90
13808;DHT22;40769;51.512;5.494;2022-11-02T12:08:59;18.60;99.90
13808;DHT22;40769;51.512;5.494;2022-11-02T12:11:52;18.60;99.90
13808;DHT22;40769;51.512;5.494;2022-11-02T12:25:27;18.60;99.90
13808;DHT22;40769;51.512;5.494;2022-11-02T12:28:14;18.60;99.90
13808;DHT22;40769;51.512;5.494;2022-11-02T12:33:56;18.70;99.90
13808;DHT22;40769;51.512;5.494;2022-11-02T12:36:34;18.70;99.90
13808;DHT22;40769;51.512;5.494;2022-11-02T12:39:07;18.70;99.90
13808;DHT22;40769;51.512;5.494;2022-11-02T12:44:40;18.80;99.90
13808;DHT22;40769;51.512;5.494;2022-11-02T12:55:25;18.90;99.90
13808;DHT22;40769;51.512;5.494;2022-11-02T12:57:59;19.00;99.90
13808;DHT22;40769;51.512;5.494;2022-11-02T13:00:26;19.10;99.90
13808;DHT22;40769;51.512;5.494;2022-11-02T13:05:26;19.00;99.90
13808;DHT22;40769;51.512;5.494;2022-11-02T13:08:15;18.90;99.90
13808;DHT22;40769;51.512;5.494;2022-11-02T13:10:52;18.90;99.90
13808;DHT22;40769;51.512;5.494;2022-11-02T13:15:57;18.80;99.90
13808;DHT22;40769;51.512;5.494;2022-11-02T13:18:28;18.80;99.90
13808;DHT22;40769;51.512;5.494;2022-11-02T13:21:01;18.90;99.90
13808;DHT22;40769;51.512;5.494;2022-11-02T13:23:33;18.90;99.90
13808;DHT22;40769;51.512;5.494;2022-11-02T13:26:03;19.00;99.90
13808;DHT22;40769;51.512;5.494;2022-11-02T13:28:51;19.20;99.90
13808;DHT22;40769;51.512;5.494;2022-11-02T13:31:36;19.30;99.90
13808;DHT22;40769;51.512;5.494;2022-11-02T13:34:08;19.40;99.90
13808;DHT22;40769;51.512;5.494;2022-11-02T13:36:36;19.40;99.90
13808;DHT22;40769;51.512;5.494;2022-11-02T13:39:34;19.40;99.90
13808;DHT22;40769;51.512;5.494;2022-11-02T13:43:02;19.40;99.90
13808;DHT22;40769;51.512;5.494;2022-11-02T13:45:25;19.50;99.90
13808;DHT22;40769;51.512;5.494;2022-11-02T13:51:10;19.70;99.90
13808;DHT22;40769;51.512;5.494;2022-11-02T13:53:46;19.70;99.90
13808;DHT22;40769;51.512;5.494;2022-11-02T13:56:21;19.80;99.90
13808;DHT22;40769;51.512;5.494;2022-11-02T13:58:58;19.80;99.90
13808;DHT22;40769;51.512;5.494;2022-11-02T14:01:26;19.70;99.90
13808;DHT22;40769;51.512;5.494;2022-11-02T14:04:01;19.70;99.90
13808;DHT22;40769;51.512;5.494;2022-11-02T14:06:27;19.60;99.90
13808;DHT22;40769;51.512;5.494;2022-11-02T14:08:59;19.60;99.90
13808;DHT22;40769;51.512;5.494;2022-11-02T14:22:12;19.90;99.90
13808;DHT22;40769;51.512;5.494;2022-11-02T14:42:56;20.30;99.90
13808;DHT22;40769;51.512;5.494;2022-11-02T14:48:16;20.20;99.90
13808;DHT22;40769;51.512;5.494;2022-11-02T14:51:01;20.10;99.90
13808;DHT22;40769;51.512;5.494;2022-11-02T14:53:28;19.80;99.90
13808;DHT22;40769;51.512;5.494;2022-11-02T14:55:56;19.80;99.90
13808;DHT22;40769;51.512;5.494;2022-11-02T14:58:36;19.70;99.90
13808;DHT22;40769;51.512;5.494;2022-11-02T15:01:05;19.60;99.90
13808;DHT22;40769;51.512;5.494;2022-11-02T15:03:37;19.50;99.90
13808;DHT22;40769;51.512;5.494;2022-11-02T15:06:24;19.30;99.90
13808;DHT22;40769;51.512;5.494;2022-11-02T15:09:02;19.20;99.90
13808;DHT22;40769;51.512;5.494;2022-11-02T15:11:48;19.10;99.90
13808;DHT22;40769;51.512;5.494;2022-11-02T15:22:49;18.60;99.90
13808;DHT22;40769;51.512;5.494;2022-11-02T15:27:54;18.40;99.90
13808;DHT22;40769;51.512;5.494;2022-11-02T15:30:22;18.30;99.90
13808;DHT22;40769;51.512;5.494;2022-11-02T15:33:03;18.10;99.90
13808;DHT22;40769;51.512;5.494;2022-11-02T15:35:33;18.00;99.90
13808;DHT22;40769;51.512;5.494;2022-11-02T15:38:00;17.90;99.90
13808;DHT22;40769;51.512;5.494;2022-11-02T15:40:33;17.80;99.90
13808;DHT22;40769;51.512;5.494;2022-11-02T15:43:08;17.80;99.90
13808;DHT22;40769;51.512;5.494;2022-11-02T15:48:51;17.60;99.90
13808;DHT22;40769;51.512;5.494;2022-11-02T16:00:05;17.30;99.90
13808;DHT22;40769;51.512;5.494;2022-11-02T16:02:36;17.20;99.90
13808;DHT22;40769;51.512;5.494;2022-11-02T16:05:03;17.10;99.90
13808;DHT22;40769;51.512;5.494;2022-11-02T16:07:30;17.00;99.90
13808;DHT22;40769;51.512;5.494;2022-11-02T16:12:44;16.90;99.90
13808;DHT22;40769;51.512;5.494;2022-11-02T16:17:36;16.80;99.90
13808;DHT22;40769;51.512;5.494;2022-11-02T16:22:54;16.70;99.90
13808;DHT22;40769;51.512;5.494;2022-11-02T16:25:37;16.60;99.90
13808;DHT22;40769;51.512;5.494;2022-11-02T16:28:23;16.60;99.90
13808;DHT22;40769;51.512;5.494;2022-11-02T16:33:47;16.50;99.90
13808;DHT22;40769;51.512;5.494;2022-11-02T16:36:23;16.40;99.90
13808;DHT22;40769;51.512;5.494;2022-11-02T16:39:12;16.40;99.90
13808;DHT22;40769;51.512;5.494;2022-11-02T16:41:46;16.40;99.90
13808;DHT22;40769;51.512;5.494;2022-11-02T16:44:23;16.50;99.90
13808;DHT22;40769;51.512;5.494;2022-11-02T16:46:53;16.30;99.90
13808;DHT22;40769;51.512;5.494;2022-11-02T16:49:21;16.30;99.90
13808;DHT22;40769;51.512;5.494;2022-11-02T16:51:55;16.30;99.90
13808;DHT22;40769;51.512;5.494;2022-11-02T16:57:11;16.20;99.90
13808;DHT22;40769;51.512;5.494;2022-11-02T16:59:55;16.20;99.90
13808;DHT22;40769;51.512;5.494;2022-11-02T17:02:30;16.20;99.90
13808;DHT22;40769;51.512;5.494;2022-11-02T17:04:56;16.20;99.90
13808;DHT22;40769;51.512;5.494;2022-11-02T17:07:32;16.20;99.90
13808;DHT22;40769;51.512;5.494;2022-11-02T17:10:01;16.20;99.90
13808;DHT22;40769;51.512;5.494;2022-11-02T17:12:41;16.10;99.90
13808;DHT22;40769;51.512;5.494;2022-11-02T17:17:40;16.10;99.90
13808;DHT22;40769;51.512;5.494;2022-11-02T17:22:56;16.00;99.90
13808;DHT22;40769;51.512;5.494;2022-11-02T17:25:28;16.00;99.90
13808;DHT22;40769;51.512;5.494;2022-11-02T17:27:55;15.90;99.90
13808;DHT22;40769;51.512;5.494;2022-11-02T17:35:34;15.80;99.90
13808;DHT22;40769;51.512;5.494;2022-11-02T17:38:00;15.80;99.90
13808;DHT22;40769;51.512;5.494;2022-11-02T17:40:26;15.80;99.90
13808;DHT22;40769;51.512;5.494;2022-11-02T17:42:52;15.70;99.90
13808;DHT22;40769;51.512;5.494;2022-11-02T17:45:29;15.70;99.90
13808;DHT22;40769;51.512;5.494;2022-11-02T17:47:59;15.70;99.90
13808;DHT22;40769;51.512;5.494;2022-11-02T17:50:27;15.70;99.90
13808;DHT22;40769;51.512;5.494;2022-11-02T17:52:54;15.50;99.90
13808;DHT22;40769;51.512;5.494;2022-11-02T17:55:23;15.60;99.90
13808;DHT22;40769;51.512;5.494;2022-11-02T17:57:50;15.60;99.90
13808;DHT22;40769;51.512;5.494;2022-11-02T18:00:16;15.60;99.90
13808;DHT22;40769;51.512;5.494;2022-11-02T18:02:57;15.50;99.90
13808;DHT22;40769;51.512;5.494;2022-11-02T18:07:56;15.50;99.90
13808;DHT22;40769;51.512;5.494;2022-11-02T18:10:25;15.50;99.90
13808;DHT22;40769;51.512;5.494;2022-11-02T18:12:51;15.50;99.90
13808;DHT22;40769;51.512;5.494;2022-11-02T18:15:23;15.50;99.90
13808;DHT22;40769;51.512;5.494;2022-11-02T18:17:49;15.50;99.90
13808;DHT22;40769;51.512;5.494;2022-11-02T18:20:16;15.50;99.90
13808;DHT22;40769;51.512;5.494;2022-11-02T18:22:42;15.50;99.90
13808;DHT22;40769;51.512;5.494;2022-11-02T18:25:15;15.50;99.90
13808;DHT22;40769;51.512;5.494;2022-11-02T18:27:41;15.50;99.90
13808;DHT22;40769;51.512;5.494;2022-11-02T18:30:08;15.40;99.90
13808;DHT22;40769;51.512;5.494;2022-11-02T18:32:39;15.50;99.90
13808;DHT22;40769;51.512;5.494;2022-11-02T18:35:07;15.40;99.90
13808;DHT22;40769;51.512;5.494;2022-11-02T18:37:33;15.40;99.90
13808;DHT22;40769;51.512;5.494;2022-11-02T18:39:58;15.40;99.90
13808;DHT22;40769;51.512;5.494;2022-11-02T18:42:24;15.40;99.90